createdAt,value
2022-11-09T00:00:50.235Z,7.9
2022-11-09T00:02:50.834Z,7.9
2022-11-09T00:04:50.832Z,7.9
2022-11-09T00:06:50.224Z,7.9
2022-11-09T00:08:50.038Z,7.8
2022-11-09T00:10:50.541Z,7.8
2022-11-09T00:12:50.203Z,7.8
2022-11-09T00:14:50.752Z,7.8
2022-11-09T00:16:50.800Z,7.8
2022-11-09T00:18:50.330Z,7.8
2022-11-09T00:20:49.979Z,7.8
2022-11-09T00:22:50.564Z,7.8
2022-11-09T00:24:50.100Z,7.8
2022-11-09T00:26:50.083Z,7.8
2022-11-09T00:28:50.616Z,7.8
2022-11-09T00:30:50.251Z,7.8
2022-11-09T00:32:49.962Z,7.8
2022-11-09T00:34:50.249Z,7.8
2022-11-09T00:36:50.212Z,7.7
2022-11-09T00:38:50.909Z,7.7
2022-11-09T00:40:50.490Z,7.7
2022-11-09T00:42:50.430Z,7.6
2022-11-09T00:44:49.970Z,7.6
2022-11-09T00:46:49.988Z,7.6
2022-11-09T00:48:50.545Z,7.6
2022-11-09T00:50:50.043Z,7.6
2022-11-09T00:52:50.720Z,7.6
2022-11-09T00:54:50.301Z,7.6
2022-11-09T00:56:50.316Z,7.6
2022-11-09T00:58:50.919Z,7.6
2022-11-09T01:00:50.630Z,7.6
2022-11-09T01:02:50.419Z,7.6
2022-11-09T01:04:50.653Z,7.6
2022-11-09T01:06:51.035Z,7.6
2022-11-09T01:08:50.718Z,7.6
2022-11-09T01:10:50.351Z,7.6
2022-11-09T01:12:49.982Z,7.6
2022-11-09T01:14:50.536Z,7.6
2022-11-09T01:16:50.478Z,7.6
2022-11-09T01:18:50.005Z,7.6
2022-11-09T01:20:50.596Z,7.6
2022-11-09T01:22:50.232Z,7.6
2022-11-09T01:24:50.176Z,7.6
2022-11-09T01:26:50.597Z,7.6
2022-11-09T01:28:50.097Z,7.5
2022-11-09T01:30:50.669Z,7.5
2022-11-09T01:32:50.217Z,7.6
2022-11-09T01:34:50.216Z,7.6
2022-11-09T01:36:50.313Z,7.6
2022-11-09T01:38:49.972Z,7.6
2022-11-09T01:40:50.611Z,7.6
2022-11-09T01:42:50.223Z,7.6
2022-11-09T01:44:49.994Z,7.7
2022-11-09T01:46:50.963Z,7.7
2022-11-09T01:48:50.614Z,7.7
2022-11-09T01:50:50.373Z,7.7
2022-11-09T01:52:50.067Z,7.8
2022-11-09T01:54:50.719Z,7.8
2022-11-09T01:56:50.724Z,7.8
2022-11-09T01:58:50.349Z,7.8
2022-11-09T02:00:50.219Z,7.8
2022-11-09T02:02:50.855Z,7.8
2022-11-09T02:04:50.939Z,7.8
2022-11-09T02:06:51.178Z,7.8
2022-11-09T02:08:50.903Z,7.9
2022-11-09T02:10:50.530Z,7.9
2022-11-09T02:12:50.014Z,7.9
2022-11-09T02:14:50.678Z,7.9
2022-11-09T02:16:50.721Z,7.9
2022-11-09T02:18:50.453Z,8.0
2022-11-09T02:20:50.287Z,8.0
2022-11-09T02:22:50.845Z,8.0
2022-11-09T02:24:56.947Z,8.0
2022-11-09T02:26:49.903Z,8.0
2022-11-09T02:28:50.543Z,8.0
2022-11-09T02:30:50.334Z,8.0
2022-11-09T02:32:49.935Z,8.0
2022-11-09T02:34:50.069Z,8.0
2022-11-09T02:36:50.108Z,8.0
2022-11-09T02:38:50.560Z,8.0
2022-11-09T02:40:50.340Z,8.0
2022-11-09T02:42:50.205Z,8.1
2022-11-09T02:44:50.819Z,8.1
2022-11-09T02:46:50.842Z,8.1
2022-11-09T02:48:50.531Z,8.2
2022-11-09T02:50:50.246Z,8.2
2022-11-09T02:52:50.904Z,8.2
2022-11-09T02:54:50.490Z,8.2
2022-11-09T02:56:50.529Z,8.2
2022-11-09T02:58:50.283Z,8.2
2022-11-09T03:00:51.016Z,8.2
2022-11-09T03:02:50.902Z,8.2
2022-11-09T03:04:50.050Z,8.2
2022-11-09T03:06:50.419Z,8.2
2022-11-09T03:08:50.927Z,8.2
2022-11-09T03:10:50.664Z,8.2
2022-11-09T03:12:50.287Z,8.2
2022-11-09T03:14:50.003Z,8.2
2022-11-09T03:16:51.477Z,8.3
2022-11-09T03:18:50.182Z,8.4
2022-11-09T03:20:50.754Z,8.4
2022-11-09T03:22:50.403Z,8.4
2022-11-09T03:24:50.067Z,8.4
2022-11-09T03:26:50.058Z,8.4
2022-11-09T03:28:50.789Z,8.4
2022-11-09T03:30:50.383Z,8.4
2022-11-09T03:32:51.262Z,8.4
2022-11-09T03:34:50.281Z,8.5
2022-11-09T03:36:50.381Z,8.5
2022-11-09T03:38:50.941Z,8.5
2022-11-09T03:40:50.528Z,8.5
2022-11-09T03:42:50.206Z,8.5
2022-11-09T03:44:49.948Z,8.6
2022-11-09T03:46:50.765Z,8.6
2022-11-09T03:48:50.306Z,8.6
2022-11-09T03:50:50.058Z,8.7
2022-11-09T03:52:50.921Z,8.7
2022-11-09T03:54:50.691Z,8.7
2022-11-09T03:56:50.709Z,8.7
2022-11-09T03:58:50.239Z,8.7
2022-11-09T04:00:50.816Z,8.7
2022-11-09T04:02:50.372Z,8.7
2022-11-09T04:04:50.416Z,8.8
2022-11-09T04:06:50.796Z,8.8
2022-11-09T04:08:52.132Z,8.8
2022-11-09T04:10:50.838Z,8.8
2022-11-09T04:12:50.448Z,8.8
2022-11-09T04:14:50.169Z,8.8
2022-11-09T04:16:50.140Z,8.8
2022-11-09T04:18:50.701Z,8.8
2022-11-09T04:20:50.361Z,8.8
2022-11-09T04:22:49.974Z,8.9
2022-11-09T04:24:50.689Z,8.9
2022-11-09T04:26:50.643Z,8.9
2022-11-09T04:28:50.141Z,8.9
2022-11-09T04:30:50.716Z,8.9
2022-11-09T04:32:50.383Z,8.9
2022-11-09T04:34:50.372Z,8.9
2022-11-09T04:36:50.382Z,8.9
2022-11-09T04:38:49.981Z,8.9
2022-11-09T04:40:50.684Z,8.9
2022-11-09T04:42:50.433Z,8.9
2022-11-09T04:44:49.956Z,8.9
2022-11-09T04:46:49.939Z,8.9
2022-11-09T04:48:50.611Z,8.9
2022-11-09T04:50:50.403Z,8.9
2022-11-09T04:52:50.058Z,8.9
2022-11-09T04:54:50.593Z,8.9
2022-11-09T04:56:50.514Z,9.0
2022-11-09T04:58:50.175Z,8.9
2022-11-09T05:00:50.855Z,9.0
2022-11-09T05:02:50.552Z,9.0
2022-11-09T05:04:50.594Z,9.0
2022-11-09T05:06:50.853Z,9.0
2022-11-09T05:08:50.821Z,9.0
2022-11-09T05:10:50.602Z,9.0
2022-11-09T05:12:50.207Z,9.0
2022-11-09T05:14:50.671Z,9.0
2022-11-09T05:16:50.781Z,9.1
2022-11-09T05:18:50.400Z,9.1
2022-11-09T05:20:50.058Z,9.1
2022-11-09T05:22:50.784Z,9.1
2022-11-09T05:24:50.411Z,9.1
2022-11-09T05:26:50.430Z,9.2
2022-11-09T05:28:50.020Z,9.2
2022-11-09T05:30:50.675Z,9.3
2022-11-09T05:32:50.408Z,9.3
2022-11-09T05:34:50.699Z,9.3
2022-11-09T05:36:50.663Z,9.3
2022-11-09T05:38:50.245Z,9.3
2022-11-09T05:40:50.808Z,9.3
2022-11-09T05:42:50.490Z,9.3
2022-11-09T05:44:49.981Z,9.3
2022-11-09T05:46:49.995Z,9.4
2022-11-09T05:48:50.657Z,9.4
2022-11-09T05:50:50.232Z,9.4
2022-11-09T05:52:49.958Z,9.5
2022-11-09T05:54:50.534Z,9.5
2022-11-09T05:56:50.589Z,9.5
2022-11-09T05:58:50.215Z,9.5
2022-11-09T06:00:50.774Z,9.5
2022-11-09T06:02:50.619Z,9.5
2022-11-09T06:04:49.927Z,9.5
2022-11-09T06:06:51.197Z,9.4
2022-11-09T06:08:50.025Z,9.4
2022-11-09T06:10:50.639Z,9.4
2022-11-09T06:12:50.356Z,9.4
2022-11-09T06:14:50.908Z,9.4
2022-11-09T06:16:50.734Z,9.3
2022-11-09T06:18:50.366Z,9.3
2022-11-09T06:20:50.007Z,9.3
2022-11-09T06:22:50.588Z,9.3
2022-11-09T06:24:50.140Z,9.3
2022-11-09T06:26:50.314Z,9.3
2022-11-09T06:28:49.935Z,9.3
2022-11-09T06:30:50.568Z,9.3
2022-11-09T06:32:50.217Z,9.3
2022-11-09T06:34:50.454Z,9.3
2022-11-09T06:36:50.502Z,9.2
2022-11-09T06:38:50.238Z,9.2
2022-11-09T06:40:50.884Z,9.3
2022-11-09T06:42:50.882Z,9.2
2022-11-09T06:44:50.537Z,9.2
2022-11-09T06:46:50.366Z,9.2
2022-11-09T06:48:55.074Z,9.2
2022-11-09T06:50:50.717Z,9.2
2022-11-09T06:52:50.475Z,9.2
2022-11-09T06:54:50.115Z,9.2
2022-11-09T06:56:50.471Z,9.2
2022-11-09T06:58:50.017Z,9.2
2022-11-09T07:00:50.809Z,9.2
2022-11-09T07:02:50.301Z,9.2
2022-11-09T07:04:50.258Z,9.2
2022-11-09T07:06:50.405Z,9.2
2022-11-09T07:08:49.976Z,9.2
2022-11-09T07:10:50.459Z,9.2
2022-11-09T07:12:50.091Z,9.2
2022-11-09T07:14:50.581Z,9.3
2022-11-09T07:16:50.432Z,9.3
2022-11-09T07:18:50.854Z,9.3
2022-11-09T07:20:50.494Z,9.3
2022-11-09T07:22:50.956Z,9.3
2022-11-09T07:24:50.489Z,9.3
2022-11-09T07:26:50.215Z,9.3
2022-11-09T07:28:50.594Z,9.3
2022-11-09T07:30:50.143Z,9.3
2022-11-09T07:33:10.812Z,9.3
2022-11-09T07:34:50.935Z,9.3
2022-11-09T07:36:50.875Z,9.3
2022-11-09T07:38:50.416Z,9.3
2022-11-09T07:40:49.948Z,9.3
2022-11-09T07:42:50.621Z,9.3
2022-11-09T07:44:50.173Z,9.3
2022-11-09T07:46:49.953Z,9.3
2022-11-09T07:48:50.416Z,9.4
2022-11-09T07:50:49.991Z,9.3
2022-11-09T07:52:50.481Z,9.4
2022-11-09T07:54:52.881Z,9.4
2022-11-09T07:56:50.546Z,9.4
2022-11-09T07:58:49.962Z,9.4
2022-11-09T08:00:50.512Z,9.4
2022-11-09T08:02:50.017Z,9.4
2022-11-09T08:04:50.893Z,9.4
2022-11-09T08:06:50.989Z,9.5
2022-11-09T08:08:50.446Z,9.5
2022-11-09T08:10:49.978Z,9.5
2022-11-09T08:12:50.469Z,9.5
2022-11-09T08:14:49.982Z,9.5
2022-11-09T08:16:50.746Z,9.5
2022-11-09T08:18:50.396Z,9.5
2022-11-09T08:20:50.869Z,9.5
2022-11-09T08:22:50.452Z,9.5
2022-11-09T08:24:50.150Z,9.5
2022-11-09T08:26:50.107Z,9.5
2022-11-09T08:28:50.590Z,9.6
2022-11-09T08:30:50.237Z,9.6
2022-11-09T08:32:50.805Z,9.6
2022-11-09T08:34:50.770Z,9.6
2022-11-09T08:36:50.615Z,9.6
2022-11-09T08:38:50.113Z,9.6
2022-11-09T08:40:50.739Z,9.6
2022-11-09T08:42:50.178Z,9.7
2022-11-09T08:44:50.627Z,9.7
2022-11-09T08:46:50.552Z,9.7
2022-11-09T08:48:50.109Z,9.7
2022-11-09T08:50:50.690Z,9.7
2022-11-09T08:52:50.172Z,9.8
2022-11-09T08:54:50.712Z,9.8
2022-11-09T08:56:50.462Z,9.8
2022-11-09T08:58:50.098Z,9.8
2022-11-09T09:00:50.639Z,9.8
2022-11-09T09:02:50.161Z,9.8
2022-11-09T09:04:50.019Z,9.9
2022-11-09T09:06:50.987Z,10.0
2022-11-09T09:08:50.550Z,10.0
2022-11-09T09:10:50.069Z,10.0
2022-11-09T09:12:50.536Z,10.0
2022-11-09T09:14:50.157Z,10.1
2022-11-09T09:16:49.928Z,10.1
2022-11-09T09:18:50.586Z,10.2
2022-11-09T09:20:50.098Z,10.2
2022-11-09T09:22:50.770Z,10.2
2022-11-09T09:24:50.204Z,10.2
2022-11-09T09:26:50.177Z,10.2
2022-11-09T09:28:50.700Z,10.2
2022-11-09T09:30:50.221Z,10.2
2022-11-09T09:32:50.868Z,10.2
2022-11-09T09:34:50.784Z,10.3
2022-11-09T09:36:50.679Z,10.4
2022-11-09T09:38:50.152Z,10.4
2022-11-09T09:40:50.838Z,10.4
2022-11-09T09:42:50.361Z,10.4
2022-11-09T09:44:50.016Z,10.4
2022-11-09T09:46:50.925Z,10.5
2022-11-09T09:48:50.414Z,10.5
2022-11-09T09:50:50.067Z,10.5
2022-11-09T09:53:24.090Z,10.6
2022-11-09T09:54:52.500Z,10.6
2022-11-09T09:56:50.447Z,10.6
2022-11-09T09:58:50.099Z,10.6
2022-11-09T10:00:50.546Z,10.6
2022-11-09T10:02:50.067Z,10.7
2022-11-09T10:04:50.131Z,10.7
2022-11-09T10:06:50.212Z,10.7
2022-11-09T10:08:50.950Z,10.8
2022-11-09T10:10:50.423Z,10.8
2022-11-09T10:12:49.985Z,10.8
2022-11-09T10:14:50.489Z,10.9
2022-11-09T10:16:50.289Z,10.9
2022-11-09T10:18:50.829Z,11.0
2022-11-09T10:20:53.524Z,11.0
2022-11-09T10:22:50.194Z,11.1
2022-11-09T10:25:32.485Z,11.2
2022-11-09T10:26:50.746Z,11.3
2022-11-09T10:29:17.153Z,11.3
2022-11-09T10:30:50.544Z,11.4
2022-11-09T10:32:50.162Z,11.5
2022-11-09T10:34:50.465Z,11.6
2022-11-09T10:36:50.384Z,11.6
2022-11-09T10:38:49.960Z,11.6
2022-11-09T10:40:50.564Z,11.6
2022-11-09T10:42:50.140Z,11.7
2022-11-09T10:44:50.584Z,11.8
2022-11-09T10:46:50.613Z,11.8
2022-11-09T10:48:50.164Z,11.8
2022-11-09T10:50:50.811Z,11.9
2022-11-09T10:52:50.385Z,12.0
2022-11-09T10:54:49.909Z,12.0
2022-11-09T10:57:07.390Z,12.0
2022-11-09T10:58:50.277Z,12.1
2022-11-09T11:00:50.804Z,12.2
2022-11-09T11:02:50.253Z,12.2
2022-11-09T11:04:50.396Z,12.2
2022-11-09T11:06:50.698Z,12.3
2022-11-09T11:08:50.396Z,12.4
2022-11-09T11:11:32.520Z,12.5
2022-11-09T11:12:50.801Z,12.5
2022-11-09T11:14:50.300Z,12.5
2022-11-09T11:16:50.364Z,12.6
2022-11-09T11:18:50.900Z,12.6
2022-11-09T11:20:50.595Z,12.7
2022-11-09T11:22:50.097Z,12.7
2022-11-09T11:24:50.861Z,12.7
2022-11-09T11:26:50.707Z,12.8
2022-11-09T11:28:50.093Z,12.9
2022-11-09T11:30:50.627Z,12.9
2022-11-09T11:32:51.441Z,12.9
2022-11-09T11:35:02.455Z,13.0
2022-11-09T11:36:50.868Z,13.0
2022-11-09T11:38:50.456Z,13.0
2022-11-09T11:40:50.877Z,13.0
2022-11-09T11:42:50.460Z,13.0
2022-11-09T11:45:39.336Z,13.1
2022-11-09T11:46:49.982Z,13.1
2022-11-09T11:48:51.537Z,13.1
2022-11-09T11:50:50.040Z,13.1
2022-11-09T11:52:50.568Z,13.1
2022-11-09T11:54:50.069Z,13.1
2022-11-09T11:56:50.844Z,13.1
2022-11-09T11:58:50.361Z,13.1
2022-11-09T12:00:49.945Z,13.1
2022-11-09T12:02:50.728Z,13.2
2022-11-09T12:04:50.930Z,13.2
2022-11-09T12:06:51.011Z,13.3
2022-11-09T12:08:50.801Z,13.3
2022-11-09T12:10:50.285Z,13.3
2022-11-09T12:12:50.895Z,13.3
2022-11-09T12:14:50.370Z,13.3
2022-11-09T12:16:50.305Z,13.3
2022-11-09T12:18:50.752Z,13.3
2022-11-09T12:20:50.235Z,13.3
2022-11-09T12:22:50.753Z,13.3
2022-11-09T12:24:50.239Z,13.2
2022-11-09T12:27:32.460Z,13.2
2022-11-09T12:28:50.850Z,13.2
2022-11-09T12:30:50.431Z,13.2
2022-11-09T12:32:50.899Z,13.2
2022-11-09T12:34:50.759Z,13.1
2022-11-09T12:36:50.495Z,13.1
2022-11-09T12:38:50.123Z,13.1
2022-11-09T12:40:50.746Z,13.2
2022-11-09T12:42:50.415Z,13.2
2022-11-09T12:44:49.985Z,13.2
2022-11-09T12:46:50.675Z,13.3
2022-11-09T12:48:50.190Z,13.3
2022-11-09T12:50:50.804Z,13.3
2022-11-09T12:52:50.473Z,13.3
2022-11-09T12:54:49.964Z,13.3
2022-11-09T12:56:51.225Z,13.3
2022-11-09T12:58:50.023Z,13.3
2022-11-09T13:00:49.977Z,13.3
2022-11-09T13:02:50.543Z,13.3
2022-11-09T13:04:50.846Z,13.3
2022-11-09T13:06:51.103Z,13.3
2022-11-09T13:08:50.918Z,13.3
2022-11-09T13:10:50.743Z,13.4
2022-11-09T13:12:50.370Z,13.4
2022-11-09T13:14:50.009Z,13.4
2022-11-09T13:16:49.948Z,13.4
2022-11-09T13:18:50.378Z,13.4
2022-11-09T13:20:58.143Z,13.5
2022-11-09T13:22:50.063Z,13.5
2022-11-09T13:24:50.629Z,13.5
2022-11-09T13:26:50.562Z,13.6
2022-11-09T13:28:50.149Z,13.7
2022-11-09T13:30:50.850Z,13.7
2022-11-09T13:32:50.407Z,13.8
2022-11-09T13:34:50.343Z,13.8
2022-11-09T13:36:50.443Z,13.8
2022-11-09T13:38:49.984Z,13.8
2022-11-09T13:40:50.620Z,13.8
2022-11-09T13:42:50.209Z,13.9
2022-11-09T13:44:50.919Z,14.0
2022-11-09T13:46:50.758Z,14.0
2022-11-09T13:48:50.491Z,14.0
2022-11-09T13:50:57.226Z,14.0
2022-11-09T13:52:50.235Z,14.0
2022-11-09T13:54:50.807Z,14.0
2022-11-09T13:56:50.513Z,14.1
2022-11-09T13:58:49.941Z,14.0
2022-11-09T14:00:50.377Z,14.1
2022-11-09T14:02:49.976Z,14.1
2022-11-09T14:04:50.082Z,14.1
2022-11-09T14:06:50.148Z,14.1
2022-11-09T14:08:50.818Z,14.1
2022-11-09T14:10:50.442Z,14.1
2022-11-09T14:12:50.042Z,14.1
2022-11-09T14:14:50.498Z,14.1
2022-11-09T14:16:50.249Z,14.1
2022-11-09T14:18:50.682Z,14.0
2022-11-09T14:20:50.263Z,14.0
2022-11-09T14:22:50.862Z,14.0
2022-11-09T14:24:50.293Z,14.0
2022-11-09T14:26:50.082Z,14.0
2022-11-09T14:28:50.486Z,14.0
2022-11-09T14:30:50.185Z,14.0
2022-11-09T14:32:50.687Z,14.0
2022-11-09T14:34:50.544Z,14.0
2022-11-09T14:36:50.314Z,14.0
2022-11-09T14:38:50.006Z,14.0
2022-11-09T14:40:50.625Z,14.0
2022-11-09T14:42:50.039Z,14.0
2022-11-09T14:44:50.586Z,13.9
2022-11-09T14:46:50.526Z,13.9
2022-11-09T14:48:50.098Z,13.9
2022-11-09T14:50:50.624Z,13.9
2022-11-09T14:52:50.289Z,13.8
2022-11-09T14:54:50.829Z,13.9
2022-11-09T14:56:50.619Z,13.8
2022-11-09T14:58:50.184Z,13.8
2022-11-09T15:00:50.865Z,13.8
2022-11-09T15:02:50.338Z,13.8
2022-11-09T15:04:50.472Z,13.8
2022-11-09T15:06:50.615Z,13.7
2022-11-09T15:08:50.175Z,13.7
2022-11-09T15:10:50.648Z,13.7
2022-11-09T15:12:50.147Z,13.7
2022-11-09T15:14:50.758Z,13.6
2022-11-09T15:16:50.597Z,13.6
2022-11-09T15:18:50.049Z,13.5
2022-11-09T15:20:50.543Z,13.5
2022-11-09T15:22:50.101Z,13.5
2022-11-09T15:24:50.640Z,13.4
2022-11-09T15:26:50.558Z,13.4
2022-11-09T15:28:49.966Z,13.4
2022-11-09T15:30:50.719Z,13.4
2022-11-09T15:32:50.139Z,13.3
2022-11-09T15:34:50.099Z,13.2
2022-11-09T15:36:50.864Z,13.2
2022-11-09T15:38:50.310Z,13.2
2022-11-09T15:40:50.725Z,13.1
2022-11-09T15:42:50.243Z,13.1
2022-11-09T15:44:50.976Z,13.0
2022-11-09T15:46:49.935Z,13.0
2022-11-09T15:48:50.556Z,13.0
2022-11-09T15:50:50.066Z,13.0
2022-11-09T15:52:50.663Z,12.9
2022-11-09T15:54:50.155Z,12.9
2022-11-09T15:56:49.961Z,12.9
2022-11-09T15:58:50.391Z,12.8
2022-11-09T16:00:50.223Z,12.8
2022-11-09T16:02:50.792Z,12.8
2022-11-09T16:04:50.688Z,12.8
2022-11-09T16:06:50.922Z,12.8
2022-11-09T16:08:50.609Z,12.8
2022-11-09T16:10:50.171Z,12.8
2022-11-09T16:12:50.525Z,12.8
2022-11-09T16:14:49.958Z,12.8
2022-11-09T16:16:50.769Z,12.8
2022-11-09T16:18:50.202Z,12.7
2022-11-09T16:20:50.672Z,12.7
2022-11-09T16:22:50.235Z,12.7
2022-11-09T16:24:50.773Z,12.7
2022-11-09T16:26:50.614Z,12.7
2022-11-09T16:28:50.157Z,12.7
2022-11-09T16:30:50.674Z,12.7
2022-11-09T16:32:50.242Z,12.7
2022-11-09T16:38:50.855Z,12.7
2022-11-09T16:40:50.358Z,12.6
2022-11-09T16:42:50.821Z,12.6
2022-11-09T16:44:50.462Z,12.6
2022-11-09T16:46:50.382Z,12.6
2022-11-09T16:48:50.875Z,12.6
2022-11-09T16:50:50.282Z,12.6
2022-11-09T16:52:50.839Z,12.6
2022-11-09T16:54:50.310Z,12.5
2022-11-09T16:56:50.207Z,12.5
2022-11-09T16:58:50.598Z,12.6
2022-11-09T17:01:13.942Z,12.5
2022-11-09T17:02:50.689Z,12.4
2022-11-09T17:04:50.549Z,12.4
2022-11-09T17:06:50.614Z,12.4
2022-11-09T17:08:50.338Z,12.4
2022-11-09T17:10:50.799Z,12.4
2022-11-09T17:12:50.379Z,12.4
2022-11-09T17:14:50.830Z,12.4
2022-11-09T17:16:50.879Z,12.4
2022-11-09T17:18:50.388Z,12.4
2022-11-09T17:20:50.052Z,12.4
2022-11-09T17:22:50.725Z,12.4
2022-11-09T17:24:50.200Z,12.4
2022-11-09T17:26:49.962Z,12.4
2022-11-09T17:28:50.371Z,12.4
2022-11-09T17:30:50.873Z,12.4
2022-11-09T17:32:50.385Z,12.4
2022-11-09T17:34:50.293Z,12.4
2022-11-09T17:37:05.947Z,12.4
2022-11-09T17:38:50.449Z,12.3
2022-11-09T17:40:51.061Z,12.3
2022-11-09T17:42:50.616Z,12.3
2022-11-09T17:44:50.041Z,12.3
2022-11-09T17:46:50.785Z,12.3
2022-11-09T17:48:50.191Z,12.3
2022-11-09T17:50:50.708Z,12.3
2022-11-09T17:52:50.156Z,12.3
2022-11-09T17:54:50.637Z,12.3
2022-11-09T17:56:50.467Z,12.3
2022-11-09T17:58:50.059Z,12.2
2022-11-09T18:00:50.785Z,12.2
2022-11-09T18:02:50.425Z,12.3
2022-11-09T18:04:50.425Z,12.2
2022-11-09T18:06:50.574Z,12.2
2022-11-09T18:09:40.087Z,12.2
2022-11-09T18:10:50.072Z,12.2
2022-11-09T18:12:50.449Z,12.2
2022-11-09T18:14:49.972Z,12.2
2022-11-09T18:16:50.755Z,12.2
2022-11-09T18:18:50.319Z,12.2
2022-11-09T18:20:50.787Z,12.2
2022-11-09T18:22:50.419Z,12.2
2022-11-09T18:24:50.823Z,12.2
2022-11-09T18:26:50.762Z,12.2
2022-11-09T18:28:50.184Z,12.2
2022-11-09T18:30:50.804Z,12.2
2022-11-09T18:32:50.306Z,12.2
2022-11-09T18:34:50.361Z,12.2
2022-11-09T18:36:50.349Z,12.3
2022-11-09T18:38:50.844Z,12.3
2022-11-09T18:40:50.383Z,12.3
2022-11-09T18:42:50.737Z,12.3
2022-11-09T18:44:50.352Z,12.3
2022-11-09T18:46:50.350Z,12.3
2022-11-09T18:48:50.848Z,12.3
2022-11-09T18:50:50.290Z,12.3
2022-11-09T18:52:50.009Z,12.3
2022-11-09T18:54:50.741Z,12.3
2022-11-09T18:56:50.765Z,12.3
2022-11-09T18:58:50.265Z,12.3
2022-11-09T19:00:50.869Z,12.3
2022-11-09T19:02:50.529Z,12.3
2022-11-09T19:04:50.552Z,12.3
2022-11-09T19:06:50.542Z,12.3
2022-11-09T19:08:50.293Z,12.3
2022-11-09T19:10:50.807Z,12.3
2022-11-09T19:12:50.361Z,12.3
2022-11-09T19:14:50.806Z,12.3
2022-11-09T19:16:50.740Z,12.3
2022-11-09T19:18:50.174Z,12.3
2022-11-09T19:20:50.701Z,12.3
2022-11-09T19:22:50.098Z,12.3
2022-11-09T19:24:50.672Z,12.3
2022-11-09T19:26:50.619Z,12.3
2022-11-09T19:28:50.122Z,12.3
2022-11-09T19:30:50.521Z,12.3
2022-11-09T19:32:49.981Z,12.3
2022-11-09T19:34:50.920Z,12.3
2022-11-09T19:36:50.723Z,12.3
2022-11-09T19:38:50.306Z,12.2
2022-11-09T19:40:50.708Z,12.2
2022-11-09T19:42:50.247Z,12.2
2022-11-09T19:44:57.100Z,12.2
2022-11-09T19:46:50.070Z,12.2
2022-11-09T19:48:50.650Z,12.2
2022-11-09T19:50:50.340Z,12.2
2022-11-09T19:52:50.896Z,12.2
2022-11-09T19:54:50.453Z,12.2
2022-11-09T19:56:50.413Z,12.2
2022-11-09T19:58:49.999Z,12.2
2022-11-09T20:00:50.932Z,12.2
2022-11-09T20:02:50.828Z,12.2
2022-11-09T20:04:49.970Z,12.2
2022-11-09T20:06:50.241Z,12.1
2022-11-09T20:08:50.922Z,12.1
2022-11-09T20:10:50.540Z,12.1
2022-11-09T20:12:50.199Z,12.1
2022-11-09T20:14:50.739Z,12.1
2022-11-09T20:16:50.889Z,12.1
2022-11-09T20:18:50.327Z,12.1
2022-11-09T20:20:50.930Z,12.0
2022-11-09T20:22:50.522Z,12.0
2022-11-09T20:24:50.009Z,12.0
2022-11-09T20:26:50.787Z,12.0
2022-11-09T20:28:50.198Z,12.0
2022-11-09T20:30:50.016Z,12.0
2022-11-09T20:32:50.418Z,12.0
2022-11-09T20:34:50.317Z,12.0
2022-11-09T20:36:50.146Z,12.0
2022-11-09T20:38:50.661Z,12.0
2022-11-09T20:40:50.172Z,11.9
2022-11-09T20:42:50.667Z,11.9
2022-11-09T20:44:50.127Z,11.9
2022-11-09T20:46:50.105Z,11.9
2022-11-09T20:48:56.603Z,11.9
2022-11-09T20:50:50.003Z,11.9
2022-11-09T20:52:50.505Z,11.9
2022-11-09T20:54:50.032Z,11.9
2022-11-09T20:56:50.902Z,11.9
2022-11-09T20:58:50.331Z,11.9
2022-11-09T21:00:50.895Z,11.9
2022-11-09T21:02:50.456Z,11.8
2022-11-09T21:04:50.516Z,11.8
2022-11-09T21:06:50.461Z,11.8
2022-11-09T21:08:50.301Z,11.8
2022-11-09T21:10:50.759Z,11.8
2022-11-09T21:12:50.280Z,11.8
2022-11-09T21:14:50.676Z,11.8
2022-11-09T21:16:50.466Z,11.8
2022-11-09T21:18:49.952Z,11.9
2022-11-09T21:20:50.506Z,11.9
2022-11-09T21:22:49.983Z,11.9
2022-11-09T21:24:50.579Z,11.9
2022-11-09T21:26:50.491Z,11.8
2022-11-09T21:28:50.094Z,11.8
2022-11-09T21:30:50.579Z,11.9
2022-11-09T21:32:50.289Z,11.9
2022-11-09T21:34:50.435Z,11.9
2022-11-09T21:36:50.285Z,11.9
2022-11-09T21:38:50.845Z,11.9
2022-11-09T21:40:50.345Z,11.9
2022-11-09T21:42:50.079Z,11.9
2022-11-09T21:44:50.483Z,11.9
2022-11-09T21:46:50.403Z,11.9
2022-11-09T21:48:49.938Z,11.9
2022-11-09T21:50:50.543Z,11.9
2022-11-09T21:52:50.080Z,11.9
2022-11-09T21:54:50.691Z,11.9
2022-11-09T21:56:50.606Z,11.9
2022-11-09T21:58:50.255Z,11.9
2022-11-09T22:00:50.739Z,11.9
2022-11-09T22:02:50.500Z,11.9
2022-11-09T22:04:50.732Z,11.9
2022-11-09T22:06:50.758Z,11.9
2022-11-09T22:08:50.454Z,11.9
2022-11-09T22:10:50.213Z,11.9
2022-11-09T22:12:50.917Z,11.9
2022-11-09T22:14:50.398Z,11.9
2022-11-09T22:16:50.219Z,11.9
2022-11-09T22:18:50.776Z,11.8
2022-11-09T22:20:50.345Z,11.8
2022-11-09T22:22:50.820Z,11.8
2022-11-09T22:24:50.423Z,11.8
2022-11-09T22:26:50.424Z,11.8
2022-11-09T22:28:50.224Z,11.8
2022-11-09T22:30:50.695Z,11.8
2022-11-09T22:32:50.181Z,11.8
2022-11-09T22:34:50.322Z,11.8
2022-11-09T22:36:50.163Z,11.8
2022-11-09T22:38:50.650Z,11.8
2022-11-09T22:40:50.099Z,11.8
2022-11-09T22:42:50.652Z,11.8
2022-11-09T22:44:50.122Z,11.8
2022-11-09T22:46:50.169Z,11.7
2022-11-09T22:48:50.699Z,11.7
2022-11-09T22:50:50.297Z,11.7
2022-11-09T22:52:56.525Z,11.7
2022-11-09T22:54:50.900Z,11.7
2022-11-09T22:56:50.787Z,11.7
2022-11-09T22:58:50.262Z,11.6
2022-11-09T23:00:50.717Z,11.6
2022-11-09T23:02:50.229Z,11.6
2022-11-09T23:04:50.267Z,11.6
2022-11-09T23:06:50.299Z,11.6
2022-11-09T23:08:50.003Z,11.6
2022-11-09T23:10:50.440Z,11.6
2022-11-09T23:12:49.961Z,11.6
2022-11-09T23:14:50.326Z,11.5
2022-11-09T23:16:50.209Z,11.5
2022-11-09T23:18:50.619Z,11.5
2022-11-09T23:20:50.154Z,11.5
2022-11-09T23:22:50.628Z,11.5
2022-11-09T23:24:50.243Z,11.5
2022-11-09T23:26:50.113Z,11.5
2022-11-09T23:28:50.717Z,11.4
2022-11-09T23:30:50.264Z,11.4
2022-11-09T23:32:50.878Z,11.4
2022-11-09T23:34:49.953Z,11.5
2022-11-09T23:36:50.787Z,11.4
2022-11-09T23:38:50.225Z,11.4
2022-11-09T23:40:50.893Z,11.4
2022-11-09T23:42:50.416Z,11.4
2022-11-09T23:44:49.990Z,11.4
2022-11-09T23:46:50.803Z,11.4
2022-11-09T23:48:50.389Z,11.4
2022-11-09T23:50:50.800Z,11.4
2022-11-09T23:52:50.301Z,11.4
2022-11-09T23:54:49.946Z,11.3
2022-11-09T23:56:50.869Z,11.3
2022-11-09T23:58:52.281Z,11.3
